Upstream stations:
Downstream station:
SHEF ID: QUAO2 Spring River near Quapaw, OK
STATION TYPE:
Regulating: Stage = 20.00, Flow = 33676
PRECIP STAGE STAGE(2) RIV-FLOW BAT-LOAD
in ft ft cfs volt
Ccp-Rev Ccp-Rev Ccp-Rev Ccp-Rev Ccp-Rev
(US/Central)
03/24 00:00 0.00 10.94 11.12 8235 11.88
03/24 01:00 0.00 10.85 11.08 8049 11.85
03/24 02:00 0.00 10.86 11.03 8070 11.85
03/24 03:00 0.00 10.80 10.99 7946 11.88
03/24 04:00 0.00 10.73 10.95 7802 11.88
03/24 05:00 0.00 10.71 10.90 7760 11.88
03/24 06:00 0.00 10.68 10.86 7699 11.89
03/24 07:00 0.00 10.68 10.82 7699 11.87
03/24 08:00 0.00 10.63 10.79 7596 11.87
03/24 09:00 0.00 10.58 10.74 7494 11.91
03/24 10:00 0.00 10.54 10.70 7411 12.26
03/24 11:00 0.00 10.47 10.65 7267 12.40
03/24 12:00 0.00 10.40 10.59 7124 12.69
03/24 13:00 0.00 10.33 10.55 6979 12.60
03/24 14:00 0.00 10.30 10.48 6917 12.67
03/24 15:00 0.00 10.25 10.42 6814 12.93
03/24 16:00 0.00 10.22 10.37 6753 13.05
03/24 17:00 0.00 10.13 10.31 6568 13.05
03/24 18:00 0.00 10.06 10.24 6423 12.93
03/24 19:00 0.00 10.02 10.18 6342 12.63
03/24 20:00 0.00 9.98 10.13 6260 12.37
03/24 21:00 0.00 9.90 10.06 6097 12.29
03/24 22:00 0.00 9.83 10.01 5956 12.24
03/24 23:00 0.00 9.80 9.95 5897 12.24